sensor_id;sensor_type;location;lat;lon;timestamp;temperature;humidity
27741;DHT22;15134;48.768;9.184;2024-03-22T00:01:48;12.30;99.90
27741;DHT22;15134;48.768;9.184;2024-03-22T00:04:14;12.40;99.90
27741;DHT22;15134;48.768;9.184;2024-03-22T00:06:44;12.40;99.90
27741;DHT22;15134;48.768;9.184;2024-03-22T00:09:14;12.30;99.90
27741;DHT22;15134;48.768;9.184;2024-03-22T00:11:40;12.20;99.90
27741;DHT22;15134;48.768;9.184;2024-03-22T00:14:06;12.20;99.90
27741;DHT22;15134;48.768;9.184;2024-03-22T00:16:33;12.20;99.90
27741;DHT22;15134;48.768;9.184;2024-03-22T00:18:59;12.10;99.90
27741;DHT22;15134;48.768;9.184;2024-03-22T00:21:24;12.00;99.90
27741;DHT22;15134;48.768;9.184;2024-03-22T00:23:50;12.10;99.90
27741;DHT22;15134;48.768;9.184;2024-03-22T00:26:16;12.10;99.90
27741;DHT22;15134;48.768;9.184;2024-03-22T00:28:42;12.00;99.90
27741;DHT22;15134;48.768;9.184;2024-03-22T00:31:08;12.10;99.90
27741;DHT22;15134;48.768;9.184;2024-03-22T00:33:34;12.10;99.90
27741;DHT22;15134;48.768;9.184;2024-03-22T00:36:00;12.00;99.90
27741;DHT22;15134;48.768;9.184;2024-03-22T00:38:26;11.80;99.90
27741;DHT22;15134;48.768;9.184;2024-03-22T00:40:52;11.80;99.90
27741;DHT22;15134;48.768;9.184;2024-03-22T00:43:17;11.80;99.90
27741;DHT22;15134;48.768;9.184;2024-03-22T00:45:43;11.90;99.90
27741;DHT22;15134;48.768;9.184;2024-03-22T00:48:09;11.80;99.90
27741;DHT22;15134;48.768;9.184;2024-03-22T00:50:35;11.80;99.90
27741;DHT22;15134;48.768;9.184;2024-03-22T00:53:00;11.80;99.90
27741;DHT22;15134;48.768;9.184;2024-03-22T00:55:28;11.70;99.90
27741;DHT22;15134;48.768;9.184;2024-03-22T00:57:54;11.70;99.90
27741;DHT22;15134;48.768;9.184;2024-03-22T01:00:20;11.70;99.90
27741;DHT22;15134;48.768;9.184;2024-03-22T01:02:46;11.40;99.90
27741;DHT22;15134;48.768;9.184;2024-03-22T01:05:12;11.10;99.90
27741;DHT22;15134;48.768;9.184;2024-03-22T01:07:37;11.00;99.90
27741;DHT22;15134;48.768;9.184;2024-03-22T01:10:04;11.00;99.90
27741;DHT22;15134;48.768;9.184;2024-03-22T01:12:30;11.00;99.90
27741;DHT22;15134;48.768;9.184;2024-03-22T01:14:56;11.10;99.90
27741;DHT22;15134;48.768;9.184;2024-03-22T01:17:22;11.10;99.90
27741;DHT22;15134;48.768;9.184;2024-03-22T01:19:48;11.10;99.90
27741;DHT22;15134;48.768;9.184;2024-03-22T01:22:14;11.10;99.90
27741;DHT22;15134;48.768;9.184;2024-03-22T01:24:40;11.10;99.90
27741;DHT22;15134;48.768;9.184;2024-03-22T01:27:05;10.90;99.90
27741;DHT22;15134;48.768;9.184;2024-03-22T01:29:31;10.90;99.90
27741;DHT22;15134;48.768;9.184;2024-03-22T01:32:00;10.90;99.90
27741;DHT22;15134;48.768;9.184;2024-03-22T01:34:26;10.90;99.90
27741;DHT22;15134;48.768;9.184;2024-03-22T01:36:52;11.00;99.90
27741;DHT22;15134;48.768;9.184;2024-03-22T01:39:19;11.00;99.90
27741;DHT22;15134;48.768;9.184;2024-03-22T01:41:50;10.80;99.90
27741;DHT22;15134;48.768;9.184;2024-03-22T01:44:17;10.60;99.90
27741;DHT22;15134;48.768;9.184;2024-03-22T01:46:44;10.50;99.90
27741;DHT22;15134;48.768;9.184;2024-03-22T01:49:12;10.50;99.90
27741;DHT22;15134;48.768;9.184;2024-03-22T01:51:42;10.50;99.90
27741;DHT22;15134;48.768;9.184;2024-03-22T01:54:11;10.60;99.90
27741;DHT22;15134;48.768;9.184;2024-03-22T01:56:37;10.60;99.90
27741;DHT22;15134;48.768;9.184;2024-03-22T01:59:05;10.70;99.90
27741;DHT22;15134;48.768;9.184;2024-03-22T02:01:31;10.60;99.90
27741;DHT22;15134;48.768;9.184;2024-03-22T02:03:57;10.60;99.90
27741;DHT22;15134;48.768;9.184;2024-03-22T02:06:23;10.60;99.90
27741;DHT22;15134;48.768;9.184;2024-03-22T02:08:48;10.70;99.90
27741;DHT22;15134;48.768;9.184;2024-03-22T02:11:14;10.60;99.90
27741;DHT22;15134;48.768;9.184;2024-03-22T02:13:40;10.60;99.90
27741;DHT22;15134;48.768;9.184;2024-03-22T02:16:06;10.70;99.90
27741;DHT22;15134;48.768;9.184;2024-03-22T02:18:32;10.70;99.90
27741;DHT22;15134;48.768;9.184;2024-03-22T02:20:57;10.70;99.90
27741;DHT22;15134;48.768;9.184;2024-03-22T02:23:37;10.50;99.90
27741;DHT22;15134;48.768;9.184;2024-03-22T02:26:04;10.50;99.90
27741;DHT22;15134;48.768;9.184;2024-03-22T02:28:30;10.40;99.90
27741;DHT22;15134;48.768;9.184;2024-03-22T02:30:57;10.40;99.90
27741;DHT22;15134;48.768;9.184;2024-03-22T02:33:23;10.40;99.90
27741;DHT22;15134;48.768;9.184;2024-03-22T02:35:49;10.40;99.90
27741;DHT22;15134;48.768;9.184;2024-03-22T02:38:16;10.40;99.90
27741;DHT22;15134;48.768;9.184;2024-03-22T02:40:46;10.40;99.90
27741;DHT22;15134;48.768;9.184;2024-03-22T02:43:12;10.30;99.90
27741;DHT22;15134;48.768;9.184;2024-03-22T02:45:38;10.20;99.90
27741;DHT22;15134;48.768;9.184;2024-03-22T02:48:04;10.00;99.90
27741;DHT22;15134;48.768;9.184;2024-03-22T02:50:34;10.10;99.90
27741;DHT22;15134;48.768;9.184;2024-03-22T02:53:00;10.10;99.90
27741;DHT22;15134;48.768;9.184;2024-03-22T02:55:25;10.10;99.90
27741;DHT22;15134;48.768;9.184;2024-03-22T02:57:51;10.10;99.90
27741;DHT22;15134;48.768;9.184;2024-03-22T03:00:17;10.10;99.90
27741;DHT22;15134;48.768;9.184;2024-03-22T03:02:45;10.10;99.90
27741;DHT22;15134;48.768;9.184;2024-03-22T03:05:11;10.00;99.90
27741;DHT22;15134;48.768;9.184;2024-03-22T03:07:36;9.90;99.90
27741;DHT22;15134;48.768;9.184;2024-03-22T03:10:02;10.00;99.90
27741;DHT22;15134;48.768;9.184;2024-03-22T03:12:28;10.00;99.90
27741;DHT22;15134;48.768;9.184;2024-03-22T03:14:54;10.10;99.90
27741;DHT22;15134;48.768;9.184;2024-03-22T03:17:19;10.20;99.90
27741;DHT22;15134;48.768;9.184;2024-03-22T03:19:45;10.30;99.90
27741;DHT22;15134;48.768;9.184;2024-03-22T03:22:11;10.30;99.90
27741;DHT22;15134;48.768;9.184;2024-03-22T03:24:36;10.30;99.90
27741;DHT22;15134;48.768;9.184;2024-03-22T03:27:02;10.30;99.90
27741;DHT22;15134;48.768;9.184;2024-03-22T03:29:28;10.30;99.90
27741;DHT22;15134;48.768;9.184;2024-03-22T03:31:54;10.20;99.90
27741;DHT22;15134;48.768;9.184;2024-03-22T03:34:19;10.10;99.90
27741;DHT22;15134;48.768;9.184;2024-03-22T03:36:46;10.10;99.90
27741;DHT22;15134;48.768;9.184;2024-03-22T03:39:12;10.00;99.90
27741;DHT22;15134;48.768;9.184;2024-03-22T03:41:38;9.90;99.90
27741;DHT22;15134;48.768;9.184;2024-03-22T03:44:03;9.80;99.90
27741;DHT22;15134;48.768;9.184;2024-03-22T03:46:29;9.90;99.90
27741;DHT22;15134;48.768;9.184;2024-03-22T03:48:55;9.80;99.90
27741;DHT22;15134;48.768;9.184;2024-03-22T03:51:21;9.70;99.90
27741;DHT22;15134;48.768;9.184;2024-03-22T03:53:46;9.70;99.90
27741;DHT22;15134;48.768;9.184;2024-03-22T03:56:12;9.60;99.90
27741;DHT22;15134;48.768;9.184;2024-03-22T03:58:38;9.70;99.90
27741;DHT22;15134;48.768;9.184;2024-03-22T04:01:07;9.80;99.90
27741;DHT22;15134;48.768;9.184;2024-03-22T04:03:33;9.90;99.90
27741;DHT22;15134;48.768;9.184;2024-03-22T04:05:59;9.90;99.90
27741;DHT22;15134;48.768;9.184;2024-03-22T04:13:18;9.60;99.90
27741;DHT22;15134;48.768;9.184;2024-03-22T04:15:44;9.60;99.90
27741;DHT22;15134;48.768;9.184;2024-03-22T04:18:10;9.70;99.90
27741;DHT22;15134;48.768;9.184;2024-03-22T04:20:35;9.60;99.90
27741;DHT22;15134;48.768;9.184;2024-03-22T04:23:01;9.60;99.90
27741;DHT22;15134;48.768;9.184;2024-03-22T04:25:27;9.60;99.90
27741;DHT22;15134;48.768;9.184;2024-03-22T04:27:53;9.60;99.90
27741;DHT22;15134;48.768;9.184;2024-03-22T04:30:18;9.50;99.90
27741;DHT22;15134;48.768;9.184;2024-03-22T04:32:46;9.60;99.90
27741;DHT22;15134;48.768;9.184;2024-03-22T04:35:12;9.50;99.90
27741;DHT22;15134;48.768;9.184;2024-03-22T04:37:38;9.50;99.90
27741;DHT22;15134;48.768;9.184;2024-03-22T04:40:04;9.50;99.90
27741;DHT22;15134;48.768;9.184;2024-03-22T04:42:30;9.70;99.90
27741;DHT22;15134;48.768;9.184;2024-03-22T04:44:56;9.70;99.90
27741;DHT22;15134;48.768;9.184;2024-03-22T04:47:23;9.70;99.90
27741;DHT22;15134;48.768;9.184;2024-03-22T04:49:49;9.80;99.90
27741;DHT22;15134;48.768;9.184;2024-03-22T04:52:15;9.70;99.90
27741;DHT22;15134;48.768;9.184;2024-03-22T04:54:40;9.80;99.90
27741;DHT22;15134;48.768;9.184;2024-03-22T04:57:06;9.70;99.90
27741;DHT22;15134;48.768;9.184;2024-03-22T04:59:32;9.70;99.90
27741;DHT22;15134;48.768;9.184;2024-03-22T05:01:57;9.70;99.90
27741;DHT22;15134;48.768;9.184;2024-03-22T05:04:23;9.80;99.90
27741;DHT22;15134;48.768;9.184;2024-03-22T05:06:49;9.90;99.90
27741;DHT22;15134;48.768;9.184;2024-03-22T05:09:15;9.90;99.90
27741;DHT22;15134;48.768;9.184;2024-03-22T05:11:41;9.80;99.90
27741;DHT22;15134;48.768;9.184;2024-03-22T05:14:06;9.90;99.90
27741;DHT22;15134;48.768;9.184;2024-03-22T05:16:32;10.00;99.90
27741;DHT22;15134;48.768;9.184;2024-03-22T05:18:58;10.00;99.90
27741;DHT22;15134;48.768;9.184;2024-03-22T05:21:24;9.90;99.90
27741;DHT22;15134;48.768;9.184;2024-03-22T05:23:50;9.90;99.90
27741;DHT22;15134;48.768;9.184;2024-03-22T05:26:16;10.00;99.90
27741;DHT22;15134;48.768;9.184;2024-03-22T05:28:41;10.00;99.90
27741;DHT22;15134;48.768;9.184;2024-03-22T05:31:07;10.00;99.90
27741;DHT22;15134;48.768;9.184;2024-03-22T05:33:33;10.00;99.90
27741;DHT22;15134;48.768;9.184;2024-03-22T05:35:59;10.10;99.90
27741;DHT22;15134;48.768;9.184;2024-03-22T05:38:25;10.10;99.90
27741;DHT22;15134;48.768;9.184;2024-03-22T05:40:50;10.20;99.90
27741;DHT22;15134;48.768;9.184;2024-03-22T05:43:16;10.20;99.90
27741;DHT22;15134;48.768;9.184;2024-03-22T05:45:42;10.20;99.90
27741;DHT22;15134;48.768;9.184;2024-03-22T05:48:08;10.20;99.90
27741;DHT22;15134;48.768;9.184;2024-03-22T05:50:33;10.30;99.90
27741;DHT22;15134;48.768;9.184;2024-03-22T05:52:59;10.30;99.90
27741;DHT22;15134;48.768;9.184;2024-03-22T05:55:25;10.20;99.90
27741;DHT22;15134;48.768;9.184;2024-03-22T05:57:52;10.30;99.90
27741;DHT22;15134;48.768;9.184;2024-03-22T06:00:18;10.20;99.90
27741;DHT22;15134;48.768;9.184;2024-03-22T06:02:44;10.30;99.90
27741;DHT22;15134;48.768;9.184;2024-03-22T06:05:10;10.30;99.90
27741;DHT22;15134;48.768;9.184;2024-03-22T06:07:35;10.40;99.90
27741;DHT22;15134;48.768;9.184;2024-03-22T06:10:08;10.40;99.90
27741;DHT22;15134;48.768;9.184;2024-03-22T06:12:35;10.50;99.90
27741;DHT22;15134;48.768;9.184;2024-03-22T06:15:02;10.60;99.90
27741;DHT22;15134;48.768;9.184;2024-03-22T06:17:35;10.70;99.90
27741;DHT22;15134;48.768;9.184;2024-03-22T06:20:00;10.80;99.90
27741;DHT22;15134;48.768;9.184;2024-03-22T06:22:27;11.00;99.90
27741;DHT22;15134;48.768;9.184;2024-03-22T06:24:53;11.00;99.90
27741;DHT22;15134;48.768;9.184;2024-03-22T06:27:19;10.90;99.90
27741;DHT22;15134;48.768;9.184;2024-03-22T06:29:45;10.90;99.90
27741;DHT22;15134;48.768;9.184;2024-03-22T06:32:11;10.90;99.90
27741;DHT22;15134;48.768;9.184;2024-03-22T06:34:37;10.80;99.90
27741;DHT22;15134;48.768;9.184;2024-03-22T06:37:04;11.00;99.90
27741;DHT22;15134;48.768;9.184;2024-03-22T06:39:29;11.10;99.90
27741;DHT22;15134;48.768;9.184;2024-03-22T06:41:55;11.10;99.90
27741;DHT22;15134;48.768;9.184;2024-03-22T06:44:21;11.20;99.90
27741;DHT22;15134;48.768;9.184;2024-03-22T06:46:47;11.30;99.90
27741;DHT22;15134;48.768;9.184;2024-03-22T06:49:13;11.40;99.90
27741;DHT22;15134;48.768;9.184;2024-03-22T06:51:39;11.50;99.90
27741;DHT22;15134;48.768;9.184;2024-03-22T06:54:04;11.80;99.90
27741;DHT22;15134;48.768;9.184;2024-03-22T06:56:30;12.10;99.90
27741;DHT22;15134;48.768;9.184;2024-03-22T06:58:56;12.30;99.90
27741;DHT22;15134;48.768;9.184;2024-03-22T07:01:22;12.60;99.90
27741;DHT22;15134;48.768;9.184;2024-03-22T07:03:47;12.80;99.90
27741;DHT22;15134;48.768;9.184;2024-03-22T07:06:14;12.90;99.90
27741;DHT22;15134;48.768;9.184;2024-03-22T07:08:40;13.20;99.90
27741;DHT22;15134;48.768;9.184;2024-03-22T07:11:06;13.40;99.90
27741;DHT22;15134;48.768;9.184;2024-03-22T07:13:32;13.50;99.90
27741;DHT22;15134;48.768;9.184;2024-03-22T07:15:58;13.60;99.90
27741;DHT22;15134;48.768;9.184;2024-03-22T07:18:24;13.60;99.90
27741;DHT22;15134;48.768;9.184;2024-03-22T07:20:50;13.60;99.90
27741;DHT22;15134;48.768;9.184;2024-03-22T07:23:15;13.60;99.90
27741;DHT22;15134;48.768;9.184;2024-03-22T07:25:41;13.50;99.90
27741;DHT22;15134;48.768;9.184;2024-03-22T07:28:14;13.50;99.90
27741;DHT22;15134;48.768;9.184;2024-03-22T07:30:39;13.40;99.90
27741;DHT22;15134;48.768;9.184;2024-03-22T07:33:05;13.40;99.90
27741;DHT22;15134;48.768;9.184;2024-03-22T07:35:31;13.40;99.90
27741;DHT22;15134;48.768;9.184;2024-03-22T07:37:57;13.50;99.90
27741;DHT22;15134;48.768;9.184;2024-03-22T07:40:22;13.60;99.90
27741;DHT22;15134;48.768;9.184;2024-03-22T07:42:48;13.70;99.90
27741;DHT22;15134;48.768;9.184;2024-03-22T07:45:14;13.90;99.90
27741;DHT22;15134;48.768;9.184;2024-03-22T07:47:40;14.20;99.90
27741;DHT22;15134;48.768;9.184;2024-03-22T07:50:08;14.70;99.90
27741;DHT22;15134;48.768;9.184;2024-03-22T07:52:34;15.30;99.90
27741;DHT22;15134;48.768;9.184;2024-03-22T07:55:00;16.00;99.90
27741;DHT22;15134;48.768;9.184;2024-03-22T07:57:28;16.40;99.90
27741;DHT22;15134;48.768;9.184;2024-03-22T07:59:57;17.00;99.90
27741;DHT22;15134;48.768;9.184;2024-03-22T08:02:23;17.50;99.90
27741;DHT22;15134;48.768;9.184;2024-03-22T08:04:49;17.90;99.90
27741;DHT22;15134;48.768;9.184;2024-03-22T08:07:15;18.30;99.90
27741;DHT22;15134;48.768;9.184;2024-03-22T08:09:40;18.80;99.90
27741;DHT22;15134;48.768;9.184;2024-03-22T08:12:06;19.50;99.90
27741;DHT22;15134;48.768;9.184;2024-03-22T08:14:32;20.00;99.90
27741;DHT22;15134;48.768;9.184;2024-03-22T08:16:58;20.50;99.90
27741;DHT22;15134;48.768;9.184;2024-03-22T08:19:23;21.10;99.90
27741;DHT22;15134;48.768;9.184;2024-03-22T08:21:49;21.80;99.90
27741;DHT22;15134;48.768;9.184;2024-03-22T08:24:15;22.20;99.90
27741;DHT22;15134;48.768;9.184;2024-03-22T08:26:41;22.20;99.90
27741;DHT22;15134;48.768;9.184;2024-03-22T08:29:10;23.10;99.90
27741;DHT22;15134;48.768;9.184;2024-03-22T08:31:37;24.10;99.90
27741;DHT22;15134;48.768;9.184;2024-03-22T08:34:02;24.20;99.90
27741;DHT22;15134;48.768;9.184;2024-03-22T08:36:31;24.40;99.90
27741;DHT22;15134;48.768;9.184;2024-03-22T08:38:56;24.80;99.90
27741;DHT22;15134;48.768;9.184;2024-03-22T08:41:22;24.80;99.90
27741;DHT22;15134;48.768;9.184;2024-03-22T08:43:48;24.60;99.90
27741;DHT22;15134;48.768;9.184;2024-03-22T08:46:14;24.40;99.90
27741;DHT22;15134;48.768;9.184;2024-03-22T08:48:40;24.80;99.90
27741;DHT22;15134;48.768;9.184;2024-03-22T08:51:06;24.80;99.90
27741;DHT22;15134;48.768;9.184;2024-03-22T08:55:58;23.60;99.90
27741;DHT22;15134;48.768;9.184;2024-03-22T08:58:24;23.40;99.90
27741;DHT22;15134;48.768;9.184;2024-03-22T09:00:49;23.00;99.90
27741;DHT22;15134;48.768;9.184;2024-03-22T09:03:15;22.60;99.90
27741;DHT22;15134;48.768;9.184;2024-03-22T09:05:41;22.20;99.90
27741;DHT22;15134;48.768;9.184;2024-03-22T09:08:07;22.00;99.90
27741;DHT22;15134;48.768;9.184;2024-03-22T09:10:33;21.90;99.90
27741;DHT22;15134;48.768;9.184;2024-03-22T09:12:59;21.80;99.90
27741;DHT22;15134;48.768;9.184;2024-03-22T09:15:25;21.70;99.90
27741;DHT22;15134;48.768;9.184;2024-03-22T09:17:52;21.70;99.90
27741;DHT22;15134;48.768;9.184;2024-03-22T09:20:17;21.80;99.90
27741;DHT22;15134;48.768;9.184;2024-03-22T09:22:43;21.80;99.90
27741;DHT22;15134;48.768;9.184;2024-03-22T09:30:01;22.00;99.90
27741;DHT22;15134;48.768;9.184;2024-03-22T09:32:29;22.40;99.90
27741;DHT22;15134;48.768;9.184;2024-03-22T09:34:55;22.80;99.90
27741;DHT22;15134;48.768;9.184;2024-03-22T09:37:21;23.00;99.90
27741;DHT22;15134;48.768;9.184;2024-03-22T09:39:47;23.00;99.90
27741;DHT22;15134;48.768;9.184;2024-03-22T09:42:23;22.90;99.90
27741;DHT22;15134;48.768;9.184;2024-03-22T09:44:51;23.00;99.90
27741;DHT22;15134;48.768;9.184;2024-03-22T09:47:17;22.90;99.90
27741;DHT22;15134;48.768;9.184;2024-03-22T09:49:44;22.70;99.90
27741;DHT22;15134;48.768;9.184;2024-03-22T09:52:14;22.70;99.90
27741;DHT22;15134;48.768;9.184;2024-03-22T09:54:44;22.80;99.90
27741;DHT22;15134;48.768;9.184;2024-03-22T09:57:15;22.90;99.90
27741;DHT22;15134;48.768;9.184;2024-03-22T09:59:42;23.10;99.90
27741;DHT22;15134;48.768;9.184;2024-03-22T10:02:12;22.90;99.90
27741;DHT22;15134;48.768;9.184;2024-03-22T10:04:41;22.70;99.90
27741;DHT22;15134;48.768;9.184;2024-03-22T10:07:07;22.50;99.90
27741;DHT22;15134;48.768;9.184;2024-03-22T10:09:36;22.30;99.90
27741;DHT22;15134;48.768;9.184;2024-03-22T10:12:03;22.20;99.90
27741;DHT22;15134;48.768;9.184;2024-03-22T10:14:29;22.20;99.90
27741;DHT22;15134;48.768;9.184;2024-03-22T10:16:56;22.30;99.90
27741;DHT22;15134;48.768;9.184;2024-03-22T10:19:22;22.40;99.90
27741;DHT22;15134;48.768;9.184;2024-03-22T10:22:04;22.50;99.90
27741;DHT22;15134;48.768;9.184;2024-03-22T10:24:31;22.40;99.90
27741;DHT22;15134;48.768;9.184;2024-03-22T10:26:58;22.30;99.90
27741;DHT22;15134;48.768;9.184;2024-03-22T10:29:24;22.00;99.90
27741;DHT22;15134;48.768;9.184;2024-03-22T10:31:52;21.80;99.90
27741;DHT22;15134;48.768;9.184;2024-03-22T10:34:18;21.80;99.90
27741;DHT22;15134;48.768;9.184;2024-03-22T10:36:48;21.70;99.90
27741;DHT22;15134;48.768;9.184;2024-03-22T10:39:17;21.60;99.90
27741;DHT22;15134;48.768;9.184;2024-03-22T10:41:45;21.50;99.90
27741;DHT22;15134;48.768;9.184;2024-03-22T10:44:12;21.30;99.90
27741;DHT22;15134;48.768;9.184;2024-03-22T10:46:46;21.20;99.90
27741;DHT22;15134;48.768;9.184;2024-03-22T10:49:17;21.20;99.90
27741;DHT22;15134;48.768;9.184;2024-03-22T11:01:35;20.70;99.90
27741;DHT22;15134;48.768;9.184;2024-03-22T11:04:08;20.50;99.90
27741;DHT22;15134;48.768;9.184;2024-03-22T11:06:39;20.40;99.90
27741;DHT22;15134;48.768;9.184;2024-03-22T11:09:05;20.40;99.90
27741;DHT22;15134;48.768;9.184;2024-03-22T11:11:30;20.40;99.90
27741;DHT22;15134;48.768;9.184;2024-03-22T11:16:30;20.60;99.90
27741;DHT22;15134;48.768;9.184;2024-03-22T11:21:21;20.60;99.90
27741;DHT22;15134;48.768;9.184;2024-03-22T11:23:48;20.50;99.90
27741;DHT22;15134;48.768;9.184;2024-03-22T11:26:14;20.40;99.90
27741;DHT22;15134;48.768;9.184;2024-03-22T11:28:40;20.50;99.90
27741;DHT22;15134;48.768;9.184;2024-03-22T11:31:06;20.70;99.90
27741;DHT22;15134;48.768;9.184;2024-03-22T11:33:32;20.70;99.90
27741;DHT22;15134;48.768;9.184;2024-03-22T11:36:03;20.80;99.90
27741;DHT22;15134;48.768;9.184;2024-03-22T11:38:31;20.90;99.90
27741;DHT22;15134;48.768;9.184;2024-03-22T11:40:58;20.90;99.90
27741;DHT22;15134;48.768;9.184;2024-03-22T11:43:26;20.90;99.90
27741;DHT22;15134;48.768;9.184;2024-03-22T11:45:54;20.90;99.90
27741;DHT22;15134;48.768;9.184;2024-03-22T11:48:20;20.80;99.90
27741;DHT22;15134;48.768;9.184;2024-03-22T11:50:46;20.70;99.90
27741;DHT22;15134;48.768;9.184;2024-03-22T11:53:12;20.70;99.90
27741;DHT22;15134;48.768;9.184;2024-03-22T11:55:38;20.70;99.90
27741;DHT22;15134;48.768;9.184;2024-03-22T11:58:03;20.80;99.90
27741;DHT22;15134;48.768;9.184;2024-03-22T12:00:30;20.80;99.90
27741;DHT22;15134;48.768;9.184;2024-03-22T12:02:57;20.90;99.90
27741;DHT22;15134;48.768;9.184;2024-03-22T12:05:23;20.90;99.90
27741;DHT22;15134;48.768;9.184;2024-03-22T12:07:52;20.90;99.90
27741;DHT22;15134;48.768;9.184;2024-03-22T12:10:18;20.80;99.90
27741;DHT22;15134;48.768;9.184;2024-03-22T12:12:44;20.60;99.90
27741;DHT22;15134;48.768;9.184;2024-03-22T12:15:09;20.50;99.90
27741;DHT22;15134;48.768;9.184;2024-03-22T12:17:35;20.20;99.90
27741;DHT22;15134;48.768;9.184;2024-03-22T12:20:03;20.10;99.90
27741;DHT22;15134;48.768;9.184;2024-03-22T12:22:30;20.10;99.90
27741;DHT22;15134;48.768;9.184;2024-03-22T12:24:56;20.20;99.90
27741;DHT22;15134;48.768;9.184;2024-03-22T12:27:22;20.40;99.90
27741;DHT22;15134;48.768;9.184;2024-03-22T12:29:48;20.50;99.90
27741;DHT22;15134;48.768;9.184;2024-03-22T12:32:14;20.50;99.90
27741;DHT22;15134;48.768;9.184;2024-03-22T12:34:40;20.50;99.90
27741;DHT22;15134;48.768;9.184;2024-03-22T12:37:06;20.60;99.90
27741;DHT22;15134;48.768;9.184;2024-03-22T12:39:31;20.70;99.90
27741;DHT22;15134;48.768;9.184;2024-03-22T12:41:58;20.70;99.90
27741;DHT22;15134;48.768;9.184;2024-03-22T12:44:23;20.70;99.90
27741;DHT22;15134;48.768;9.184;2024-03-22T12:46:49;20.70;99.90
27741;DHT22;15134;48.768;9.184;2024-03-22T12:49:17;20.70;99.90
27741;DHT22;15134;48.768;9.184;2024-03-22T12:51:42;20.80;99.90
27741;DHT22;15134;48.768;9.184;2024-03-22T12:54:10;20.70;99.90
27741;DHT22;15134;48.768;9.184;2024-03-22T12:56:36;20.80;99.90
27741;DHT22;15134;48.768;9.184;2024-03-22T12:59:04;20.80;99.90
27741;DHT22;15134;48.768;9.184;2024-03-22T13:01:30;20.80;99.90
27741;DHT22;15134;48.768;9.184;2024-03-22T13:03:56;20.70;99.90
27741;DHT22;15134;48.768;9.184;2024-03-22T13:06:22;20.70;99.90
27741;DHT22;15134;48.768;9.184;2024-03-22T13:08:48;20.60;99.90
27741;DHT22;15134;48.768;9.184;2024-03-22T13:11:13;20.60;99.90
27741;DHT22;15134;48.768;9.184;2024-03-22T13:13:39;20.60;99.90
27741;DHT22;15134;48.768;9.184;2024-03-22T13:16:05;20.70;99.90
27741;DHT22;15134;48.768;9.184;2024-03-22T13:18:32;20.70;99.90
27741;DHT22;15134;48.768;9.184;2024-03-22T13:20:58;20.60;99.90
27741;DHT22;15134;48.768;9.184;2024-03-22T13:23:24;20.60;99.90
27741;DHT22;15134;48.768;9.184;2024-03-22T13:25:49;20.50;99.90
27741;DHT22;15134;48.768;9.184;2024-03-22T13:28:15;20.50;99.90
27741;DHT22;15134;48.768;9.184;2024-03-22T13:30:45;20.60;99.90
27741;DHT22;15134;48.768;9.184;2024-03-22T13:33:11;20.60;99.90
27741;DHT22;15134;48.768;9.184;2024-03-22T13:35:37;20.50;99.90
27741;DHT22;15134;48.768;9.184;2024-03-22T13:38:03;20.60;99.90
27741;DHT22;15134;48.768;9.184;2024-03-22T13:40:29;20.60;99.90
27741;DHT22;15134;48.768;9.184;2024-03-22T13:42:55;20.60;99.90
27741;DHT22;15134;48.768;9.184;2024-03-22T13:45:20;20.60;99.90
27741;DHT22;15134;48.768;9.184;2024-03-22T13:47:46;20.60;99.90
27741;DHT22;15134;48.768;9.184;2024-03-22T13:50:12;20.60;99.90
27741;DHT22;15134;48.768;9.184;2024-03-22T13:52:38;20.50;99.90
27741;DHT22;15134;48.768;9.184;2024-03-22T13:55:04;20.50;99.90
27741;DHT22;15134;48.768;9.184;2024-03-22T13:57:30;20.60;99.90
27741;DHT22;15134;48.768;9.184;2024-03-22T13:59:57;20.60;99.90
27741;DHT22;15134;48.768;9.184;2024-03-22T14:02:23;20.60;99.90
27741;DHT22;15134;48.768;9.184;2024-03-22T14:04:49;20.50;99.90
27741;DHT22;15134;48.768;9.184;2024-03-22T14:07:14;20.30;99.90
27741;DHT22;15134;48.768;9.184;2024-03-22T14:09:40;20.10;99.90
27741;DHT22;15134;48.768;9.184;2024-03-22T14:12:06;20.00;99.90
27741;DHT22;15134;48.768;9.184;2024-03-22T14:14:32;19.90;99.90
27741;DHT22;15134;48.768;9.184;2024-03-22T14:16:58;19.80;99.90
27741;DHT22;15134;48.768;9.184;2024-03-22T14:19:24;19.70;99.90
27741;DHT22;15134;48.768;9.184;2024-03-22T14:21:49;19.80;99.90
27741;DHT22;15134;48.768;9.184;2024-03-22T14:24:15;19.80;99.90
27741;DHT22;15134;48.768;9.184;2024-03-22T14:26:44;19.70;99.90
27741;DHT22;15134;48.768;9.184;2024-03-22T14:29:10;19.60;99.90
27741;DHT22;15134;48.768;9.184;2024-03-22T14:31:36;19.50;99.90
27741;DHT22;15134;48.768;9.184;2024-03-22T14:34:03;19.40;99.90
27741;DHT22;15134;48.768;9.184;2024-03-22T14:36:29;19.30;99.90
27741;DHT22;15134;48.768;9.184;2024-03-22T14:38:55;19.10;99.90
27741;DHT22;15134;48.768;9.184;2024-03-22T14:41:20;19.00;99.90
27741;DHT22;15134;48.768;9.184;2024-03-22T14:43:46;18.90;99.90
27741;DHT22;15134;48.768;9.184;2024-03-22T14:46:12;18.80;99.90
27741;DHT22;15134;48.768;9.184;2024-03-22T14:48:37;18.80;99.90
27741;DHT22;15134;48.768;9.184;2024-03-22T14:51:04;18.80;99.90
27741;DHT22;15134;48.768;9.184;2024-03-22T14:53:29;18.80;99.90
27741;DHT22;15134;48.768;9.184;2024-03-22T14:56:03;18.80;99.90
27741;DHT22;15134;48.768;9.184;2024-03-22T14:58:33;18.80;99.90
27741;DHT22;15134;48.768;9.184;2024-03-22T15:01:03;18.80;99.90
27741;DHT22;15134;48.768;9.184;2024-03-22T15:03:30;18.80;99.90
27741;DHT22;15134;48.768;9.184;2024-03-22T15:05:58;18.90;99.90
27741;DHT22;15134;48.768;9.184;2024-03-22T15:08:27;18.90;99.90
27741;DHT22;15134;48.768;9.184;2024-03-22T15:10:56;18.90;99.90
27741;DHT22;15134;48.768;9.184;2024-03-22T15:13:22;18.90;99.90
27741;DHT22;15134;48.768;9.184;2024-03-22T15:15:58;18.90;99.90
27741;DHT22;15134;48.768;9.184;2024-03-22T15:18:25;18.90;99.90
27741;DHT22;15134;48.768;9.184;2024-03-22T15:20:52;18.90;99.90
27741;DHT22;15134;48.768;9.184;2024-03-22T15:23:18;18.70;99.90
27741;DHT22;15134;48.768;9.184;2024-03-22T15:25:46;18.70;99.90
27741;DHT22;15134;48.768;9.184;2024-03-22T15:28:13;18.60;99.90
27741;DHT22;15134;48.768;9.184;2024-03-22T15:30:39;18.60;99.90
27741;DHT22;15134;48.768;9.184;2024-03-22T15:33:05;18.50;99.90
27741;DHT22;15134;48.768;9.184;2024-03-22T15:35:34;18.40;99.90
27741;DHT22;15134;48.768;9.184;2024-03-22T15:38:01;18.40;99.90
27741;DHT22;15134;48.768;9.184;2024-03-22T15:40:30;18.40;99.90
27741;DHT22;15134;48.768;9.184;2024-03-22T15:42:58;18.30;99.90
27741;DHT22;15134;48.768;9.184;2024-03-22T15:45:24;18.20;99.90
27741;DHT22;15134;48.768;9.184;2024-03-22T15:47:50;18.30;99.90
27741;DHT22;15134;48.768;9.184;2024-03-22T15:50:15;18.20;99.90
27741;DHT22;15134;48.768;9.184;2024-03-22T15:52:41;18.20;99.90
27741;DHT22;15134;48.768;9.184;2024-03-22T15:55:07;18.20;99.90